createdAt,value
2023-12-11T00:01:41.042Z,21.00
2023-12-11T00:06:44.179Z,20.00
2023-12-11T00:11:47.039Z,20.40
2023-12-11T00:16:49.905Z,21.50
2023-12-11T00:21:53.081Z,20.10
2023-12-11T00:26:55.970Z,22.20
2023-12-11T00:31:58.903Z,21.50
2023-12-11T00:37:02.190Z,21.90
2023-12-11T00:42:05.205Z,20.60
2023-12-11T00:47:08.516Z,19.30
2023-12-11T00:52:11.393Z,19.40
2023-12-11T00:57:14.287Z,17.50
2023-12-11T01:02:19.382Z,16.80
2023-12-11T01:07:22.201Z,18.00
2023-12-11T01:12:25.070Z,14.90
2023-12-11T01:17:38.539Z,16.50
2023-12-11T01:22:43.571Z,15.00
2023-12-11T01:27:46.476Z,14.70
2023-12-11T01:32:49.417Z,15.00
2023-12-11T01:37:52.308Z,14.40
2023-12-11T01:43:04.540Z,14.00
2023-12-11T01:48:14.167Z,17.40
2023-12-11T01:53:17.240Z,16.80
2023-12-11T01:58:22.257Z,19.50
2023-12-11T02:03:25.724Z,18.90
2023-12-11T02:08:28.736Z,16.30
2023-12-11T02:13:32.684Z,15.40
2023-12-11T02:18:35.658Z,14.40
2023-12-11T02:23:54.378Z,12.40
2023-12-11T02:28:57.300Z,11.40
2023-12-11T02:34:00.390Z,11.20
2023-12-11T02:39:03.919Z,12.50
2023-12-11T02:44:06.784Z,11.40
2023-12-11T02:49:09.820Z,10.70
2023-12-11T02:54:12.781Z,11.30
2023-12-11T02:59:15.708Z,12.10
2023-12-11T03:04:18.749Z,12.10
2023-12-11T03:09:21.891Z,10.30
2023-12-11T03:14:24.852Z,10.80
2023-12-11T03:19:29.537Z,10.10
2023-12-11T03:24:32.643Z,10.30
2023-12-11T03:29:35.596Z,13.50
2023-12-11T03:34:38.786Z,13.90
2023-12-11T03:39:43.641Z,14.10
2023-12-11T03:44:47.011Z,13.50
2023-12-11T03:49:50.265Z,13.70
2023-12-11T03:54:53.766Z,11.50
2023-12-11T03:59:57.201Z,12.40
2023-12-11T04:05:00.417Z,12.50
2023-12-11T04:10:04.640Z,10.70
2023-12-11T04:15:08.257Z,9.80
2023-12-11T04:20:11.823Z,8.10
2023-12-11T04:25:14.858Z,8.50
2023-12-11T04:30:17.763Z,8.20
2023-12-11T04:35:20.678Z,8.10
2023-12-11T04:40:23.868Z,7.50
2023-12-11T04:45:26.810Z,8.60
2023-12-11T04:50:29.640Z,7.50
2023-12-11T04:55:32.657Z,7.60
2023-12-11T05:00:35.671Z,8.40
2023-12-11T05:05:38.707Z,8.80
2023-12-11T05:10:41.575Z,8.40
2023-12-11T05:15:44.544Z,9.20
2023-12-11T05:20:47.513Z,8.10
2023-12-11T05:25:52.672Z,8.30
2023-12-11T05:30:55.576Z,8.30
2023-12-11T05:35:58.600Z,8.40
2023-12-11T05:41:01.610Z,8.50
2023-12-11T05:46:04.805Z,7.90
2023-12-11T05:51:07.766Z,7.40
2023-12-11T05:56:11.266Z,7.90
2023-12-11T06:01:14.319Z,8.10
2023-12-11T06:06:18.062Z,9.70
2023-12-11T06:11:21.017Z,10.70
2023-12-11T06:16:24.022Z,9.80
2023-12-11T06:21:26.958Z,11.00
2023-12-11T06:26:33.942Z,10.00
2023-12-11T06:31:36.917Z,11.50
2023-12-11T06:36:40.798Z,9.30
2023-12-11T06:41:43.817Z,10.40
2023-12-11T06:46:47.925Z,11.60
2023-12-11T06:51:51.424Z,11.70
2023-12-11T06:56:56.122Z,14.50
2023-12-11T07:02:05.731Z,9.80
2023-12-11T07:07:09.102Z,7.60
2023-12-11T07:12:12.048Z,12.60
2023-12-11T07:17:16.087Z,13.10
2023-12-11T07:22:19.388Z,11.90
2023-12-11T07:27:22.459Z,16.30
2023-12-11T07:32:25.753Z,15.00
2023-12-11T07:37:42.174Z,13.10
2023-12-11T07:42:46.525Z,12.50
2023-12-11T07:47:49.622Z,12.70
2023-12-11T07:52:53.689Z,11.60
2023-12-11T07:57:56.868Z,16.30
2023-12-11T08:03:05.075Z,14.50
2023-12-11T08:08:11.491Z,17.60
2023-12-11T08:13:17.594Z,12.10
2023-12-11T08:18:21.167Z,12.20
2023-12-11T08:23:24.132Z,11.90
2023-12-11T08:28:27.649Z,10.90
2023-12-11T08:33:33.108Z,15.30
2023-12-11T08:38:42.538Z,10.60
2023-12-11T08:43:45.585Z,10.60
2023-12-11T08:48:48.757Z,10.70
2023-12-11T08:53:53.939Z,12.10
2023-12-11T08:58:57.363Z,12.30
2023-12-11T09:04:02.036Z,11.60
2023-12-11T09:09:05.690Z,12.60
2023-12-11T09:14:08.670Z,9.90
2023-12-11T09:19:11.808Z,10.70
2023-12-11T09:24:16.846Z,10.70
2023-12-11T09:29:20.015Z,10.60
2023-12-11T09:34:23.684Z,12.00
2023-12-11T09:39:27.211Z,16.70
2023-12-11T09:44:31.314Z,14.90
2023-12-11T09:49:34.600Z,13.50
2023-12-11T09:54:38.868Z,14.60
2023-12-11T09:59:43.165Z,13.20
2023-12-11T10:05:26.216Z,14.40
2023-12-11T10:10:35.530Z,14.20
2023-12-11T10:16:09.120Z,14.50
2023-12-11T10:21:13.285Z,14.30
2023-12-11T10:26:17.888Z,13.60
2023-12-11T10:31:29.690Z,12.10
2023-12-11T10:36:52.645Z,14.40
2023-12-11T10:41:56.385Z,22.50
2023-12-11T10:47:03.904Z,22.40
2023-12-11T10:52:09.402Z,15.80
2023-12-11T10:57:18.654Z,16.30
2023-12-11T11:02:25.542Z,15.80
2023-12-11T11:07:40.557Z,16.00
2023-12-11T11:12:44.768Z,13.60
2023-12-11T11:23:54.824Z,22.40
2023-12-11T11:28:58.041Z,20.30
2023-12-11T11:34:01.369Z,43.40
2023-12-11T11:39:05.715Z,16.20
2023-12-11T11:44:11.145Z,14.30
2023-12-11T11:49:29.038Z,14.40
2023-12-11T11:54:34.161Z,12.80
2023-12-11T11:59:44.474Z,19.90
2023-12-11T12:04:47.495Z,13.70
2023-12-11T12:09:54.078Z,14.10
2023-12-11T12:15:06.230Z,18.90
2023-12-11T12:20:13.462Z,14.70
2023-12-11T12:25:19.790Z,20.20
2023-12-11T12:30:25.278Z,18.00
2023-12-11T12:35:29.631Z,18.80
2023-12-11T12:40:45.840Z,16.00
2023-12-11T12:45:49.859Z,28.60
2023-12-11T12:51:13.629Z,23.00
2023-12-11T12:56:20.544Z,22.90
2023-12-11T13:01:23.810Z,20.40
2023-12-11T13:06:28.632Z,27.30
2023-12-11T13:11:48.341Z,18.40
2023-12-11T13:16:51.664Z,11.50
2023-12-11T13:21:54.623Z,8.30
2023-12-11T13:26:59.170Z,7.70
2023-12-11T13:32:02.178Z,7.70
2023-12-11T13:37:05.426Z,8.80
2023-12-11T13:42:16.208Z,8.20
2023-12-11T13:47:24.688Z,8.20
2023-12-11T13:52:31.623Z,8.70
2023-12-11T13:57:35.415Z,9.30
2023-12-11T14:02:59.964Z,9.00
2023-12-11T14:08:03.938Z,9.90
2023-12-11T14:13:11.983Z,10.10
2023-12-11T14:18:15.637Z,9.30
2023-12-11T14:23:21.679Z,9.80
2023-12-11T14:28:25.181Z,9.80
2023-12-11T14:33:28.467Z,9.10
2023-12-11T14:38:32.191Z,9.00
2023-12-11T14:43:35.534Z,9.10
2023-12-11T14:48:40.086Z,10.20
2023-12-11T14:53:43.503Z,9.30
2023-12-11T14:58:47.024Z,11.80
2023-12-11T15:03:50.225Z,13.20
2023-12-11T15:08:53.273Z,13.20
2023-12-11T15:13:56.208Z,12.90
2023-12-11T15:19:00.796Z,12.50
2023-12-11T15:24:08.243Z,12.50
2023-12-11T15:29:11.391Z,12.80
2023-12-11T15:34:16.271Z,14.10
2023-12-11T15:39:19.896Z,11.40
2023-12-11T15:44:23.176Z,11.00
2023-12-11T15:49:26.790Z,10.10
2023-12-11T15:54:30.020Z,10.20
2023-12-11T15:59:35.454Z,10.90
2023-12-11T16:04:38.378Z,12.00
2023-12-11T16:09:42.073Z,13.90
2023-12-11T16:14:44.982Z,14.20
2023-12-11T16:19:49.373Z,13.10
2023-12-11T16:24:52.972Z,12.70
2023-12-11T16:29:56.515Z,13.60
2023-12-11T16:35:00.788Z,16.50
2023-12-11T16:40:09.391Z,12.40
2023-12-11T16:45:16.535Z,15.70
2023-12-11T16:50:19.606Z,16.00
2023-12-11T16:55:22.899Z,13.60
2023-12-11T17:00:27.482Z,13.80
2023-12-11T17:05:31.999Z,12.50
2023-12-11T17:10:35.375Z,11.80
2023-12-11T17:15:38.307Z,13.00
2023-12-11T17:20:41.147Z,12.70
2023-12-11T17:25:45.531Z,11.80
2023-12-11T17:30:53.795Z,13.10
2023-12-11T17:35:56.926Z,13.00
2023-12-11T17:41:01.239Z,12.60
2023-12-11T17:46:04.594Z,14.30
2023-12-11T17:51:10.126Z,13.10
2023-12-11T17:56:18.709Z,14.40
2023-12-11T18:01:21.977Z,13.60
2023-12-11T18:06:25.136Z,12.70
2023-12-11T18:11:28.493Z,13.30
2023-12-11T18:16:33.201Z,14.10
2023-12-11T18:21:36.268Z,13.80
2023-12-11T18:26:40.193Z,13.90
2023-12-11T18:31:43.525Z,12.60
2023-12-11T18:36:47.221Z,11.80
2023-12-11T18:41:50.250Z,13.80
2023-12-11T18:46:55.672Z,11.90
2023-12-11T18:51:59.545Z,12.70
2023-12-11T18:57:05.095Z,12.70
2023-12-11T19:02:09.306Z,13.30
2023-12-11T19:07:12.626Z,18.60
2023-12-11T19:12:16.755Z,11.20
2023-12-11T19:17:20.320Z,11.50
2023-12-11T19:22:23.207Z,11.70
2023-12-11T19:27:26.345Z,12.00
2023-12-11T19:32:29.286Z,11.80
2023-12-11T19:37:32.542Z,13.40
2023-12-11T19:42:35.796Z,13.30
2023-12-11T19:47:42.812Z,11.30
2023-12-11T19:52:52.087Z,11.80
2023-12-11T19:57:55.555Z,10.40
2023-12-11T20:02:58.572Z,10.60
2023-12-11T20:08:04.530Z,9.40
2023-12-11T20:13:09.489Z,10.70
2023-12-11T20:18:14.633Z,10.20
2023-12-11T20:23:17.692Z,10.30
2023-12-11T20:28:20.590Z,9.40
2023-12-11T20:33:23.736Z,9.40
2023-12-11T20:38:26.684Z,9.30
2023-12-11T20:43:29.810Z,9.30
2023-12-11T20:48:32.862Z,9.60
2023-12-11T20:53:39.546Z,9.70
2023-12-11T20:58:42.447Z,9.90
2023-12-11T21:03:46.190Z,10.40
2023-12-11T21:08:52.339Z,11.60
2023-12-11T21:13:55.925Z,9.10
2023-12-11T21:18:59.123Z,9.30
2023-12-11T21:24:02.118Z,8.90
2023-12-11T21:29:05.055Z,9.40
2023-12-11T21:34:08.172Z,9.70
2023-12-11T21:39:11.894Z,9.60
2023-12-11T21:44:15.687Z,9.60
2023-12-11T21:49:20.677Z,9.40
2023-12-11T21:54:24.102Z,9.30
2023-12-11T21:59:35.561Z,11.20
2023-12-11T22:04:45.559Z,10.90
2023-12-11T22:09:49.379Z,11.80
2023-12-11T22:14:52.517Z,11.40
2023-12-11T22:19:57.786Z,11.50
2023-12-11T22:25:02.702Z,11.20
2023-12-11T22:30:07.668Z,11.00
2023-12-11T22:35:10.657Z,10.70
2023-12-11T22:40:13.892Z,10.00
2023-12-11T22:45:20.347Z,9.10
2023-12-11T22:50:23.235Z,9.00
2023-12-11T22:55:26.156Z,9.40
2023-12-11T23:00:29.077Z,9.00
2023-12-11T23:05:32.512Z,10.50
2023-12-11T23:10:35.609Z,9.50
2023-12-11T23:15:38.908Z,9.20
2023-12-11T23:20:41.887Z,9.70
2023-12-11T23:25:50.506Z,8.50
2023-12-11T23:31:02.202Z,8.70
2023-12-11T23:36:06.425Z,10.30
2023-12-11T23:41:09.283Z,10.00
2023-12-11T23:46:12.265Z,10.10
2023-12-11T23:51:15.207Z,10.70
2023-12-11T23:56:18.070Z,9.90
